sensor_id;sensor_type;location;lat;lon;timestamp;P1;durP1;ratioP1;P2;durP2;ratioP2
84818;SDS011;75053;51.080;13.712;2024-02-04T00:00:19;1.23;;;1.17;;
84818;SDS011;75053;51.080;13.712;2024-02-04T00:02:50;0.80;;;0.80;;
84818;SDS011;75053;51.080;13.712;2024-02-04T00:05:16;0.60;;;0.60;;
84818;SDS011;75053;51.080;13.712;2024-02-04T00:07:43;1.00;;;1.00;;
84818;SDS011;75053;51.080;13.712;2024-02-04T00:10:08;1.10;;;1.10;;
84818;SDS011;75053;51.080;13.712;2024-02-04T00:12:34;2.73;;;0.97;;
84818;SDS011;75053;51.080;13.712;2024-02-04T00:14:59;0.80;;;0.80;;
84818;SDS011;75053;51.080;13.712;2024-02-04T00:17:25;0.90;;;0.90;;
84818;SDS011;75053;51.080;13.712;2024-02-04T00:19:55;0.90;;;0.90;;
84818;SDS011;75053;51.080;13.712;2024-02-04T00:22:24;0.90;;;0.90;;
84818;SDS011;75053;51.080;13.712;2024-02-04T00:24:49;3.03;;;1.00;;
84818;SDS011;75053;51.080;13.712;2024-02-04T00:27:15;0.63;;;0.60;;
84818;SDS011;75053;51.080;13.712;2024-02-04T00:29:41;4.20;;;1.17;;
84818;SDS011;75053;51.080;13.712;2024-02-04T00:32:06;0.57;;;0.57;;
84818;SDS011;75053;51.080;13.712;2024-02-04T00:34:32;1.23;;;0.70;;
84818;SDS011;75053;51.080;13.712;2024-02-04T00:36:58;1.43;;;0.80;;
84818;SDS011;75053;51.080;13.712;2024-02-04T00:39:24;0.80;;;0.80;;
84818;SDS011;75053;51.080;13.712;2024-02-04T00:41:49;1.00;;;1.00;;
84818;SDS011;75053;51.080;13.712;2024-02-04T00:44:15;0.83;;;0.83;;
84818;SDS011;75053;51.080;13.712;2024-02-04T00:46:40;0.90;;;0.80;;
84818;SDS011;75053;51.080;13.712;2024-02-04T00:49:08;1.10;;;1.03;;
84818;SDS011;75053;51.080;13.712;2024-02-04T00:51:39;1.10;;;1.10;;
84818;SDS011;75053;51.080;13.712;2024-02-04T00:54:05;3.07;;;0.97;;
84818;SDS011;75053;51.080;13.712;2024-02-04T00:56:30;0.80;;;0.80;;
84818;SDS011;75053;51.080;13.712;2024-02-04T00:58:55;1.10;;;1.07;;
84818;SDS011;75053;51.080;13.712;2024-02-04T01:01:21;2.80;;;0.93;;
84818;SDS011;75053;51.080;13.712;2024-02-04T01:03:46;1.50;;;0.80;;
84818;SDS011;75053;51.080;13.712;2024-02-04T01:06:12;1.10;;;1.00;;
84818;SDS011;75053;51.080;13.712;2024-02-04T01:08:37;0.93;;;0.90;;
84818;SDS011;75053;51.080;13.712;2024-02-04T01:11:04;1.33;;;1.00;;
84818;SDS011;75053;51.080;13.712;2024-02-04T01:13:30;1.70;;;0.97;;
84818;SDS011;75053;51.080;13.712;2024-02-04T01:15:56;1.10;;;1.10;;
84818;SDS011;75053;51.080;13.712;2024-02-04T01:18:22;1.17;;;0.90;;
84818;SDS011;75053;51.080;13.712;2024-02-04T01:20:48;5.70;;;3.10;;
84818;SDS011;75053;51.080;13.712;2024-02-04T01:23:14;1.00;;;1.00;;
84818;SDS011;75053;51.080;13.712;2024-02-04T01:25:45;1.40;;;1.30;;
84818;SDS011;75053;51.080;13.712;2024-02-04T01:28:11;1.57;;;0.93;;
84818;SDS011;75053;51.080;13.712;2024-02-04T01:30:36;1.87;;;0.90;;
84818;SDS011;75053;51.080;13.712;2024-02-04T01:33:02;1.00;;;1.00;;
84818;SDS011;75053;51.080;13.712;2024-02-04T01:35:28;1.47;;;0.97;;
84818;SDS011;75053;51.080;13.712;2024-02-04T01:37:54;0.80;;;0.80;;
84818;SDS011;75053;51.080;13.712;2024-02-04T01:43:04;1.13;;;0.87;;
84818;SDS011;75053;51.080;13.712;2024-02-04T01:45:29;1.27;;;0.80;;
84818;SDS011;75053;51.080;13.712;2024-02-04T01:47:55;1.30;;;0.80;;
84818;SDS011;75053;51.080;13.712;2024-02-04T01:50:20;2.03;;;0.67;;
84818;SDS011;75053;51.080;13.712;2024-02-04T01:52:47;0.73;;;0.70;;
84818;SDS011;75053;51.080;13.712;2024-02-04T01:55:14;0.70;;;0.70;;
84818;SDS011;75053;51.080;13.712;2024-02-04T01:57:40;1.07;;;0.77;;
84818;SDS011;75053;51.080;13.712;2024-02-04T02:00:06;1.77;;;0.80;;
84818;SDS011;75053;51.080;13.712;2024-02-04T02:02:49;0.93;;;0.80;;
84818;SDS011;75053;51.080;13.712;2024-02-04T02:05:15;1.47;;;0.70;;
84818;SDS011;75053;51.080;13.712;2024-02-04T02:07:41;1.43;;;1.07;;
84818;SDS011;75053;51.080;13.712;2024-02-04T02:10:09;0.47;;;0.47;;
84818;SDS011;75053;51.080;13.712;2024-02-04T02:12:39;0.47;;;0.47;;
84818;SDS011;75053;51.080;13.712;2024-02-04T02:15:13;2.00;;;0.70;;
84818;SDS011;75053;51.080;13.712;2024-02-04T02:17:44;0.80;;;0.63;;
84818;SDS011;75053;51.080;13.712;2024-02-04T02:20:21;0.70;;;0.70;;
84818;SDS011;75053;51.080;13.712;2024-02-04T02:23:03;3.00;;;0.70;;
84818;SDS011;75053;51.080;13.712;2024-02-04T02:25:32;1.20;;;0.90;;
84818;SDS011;75053;51.080;13.712;2024-02-04T02:28:01;0.70;;;0.70;;
84818;SDS011;75053;51.080;13.712;2024-02-04T02:30:29;1.43;;;1.13;;
84818;SDS011;75053;51.080;13.712;2024-02-04T02:32:54;1.50;;;1.40;;
84818;SDS011;75053;51.080;13.712;2024-02-04T02:35:20;1.10;;;1.10;;
84818;SDS011;75053;51.080;13.712;2024-02-04T02:37:55;1.80;;;1.50;;
84818;SDS011;75053;51.080;13.712;2024-02-04T02:40:56;4.57;;;1.40;;
84818;SDS011;75053;51.080;13.712;2024-02-04T02:43:24;1.87;;;1.43;;
84818;SDS011;75053;51.080;13.712;2024-02-04T02:45:51;1.80;;;1.70;;
84818;SDS011;75053;51.080;13.712;2024-02-04T02:48:17;2.20;;;2.10;;
84818;SDS011;75053;51.080;13.712;2024-02-04T02:50:43;1.93;;;1.83;;
84818;SDS011;75053;51.080;13.712;2024-02-04T02:53:09;2.47;;;2.27;;
84818;SDS011;75053;51.080;13.712;2024-02-04T02:55:34;2.20;;;2.10;;
84818;SDS011;75053;51.080;13.712;2024-02-04T02:58:00;2.80;;;2.37;;
84818;SDS011;75053;51.080;13.712;2024-02-04T03:00:25;2.47;;;2.27;;
84818;SDS011;75053;51.080;13.712;2024-02-04T03:02:51;3.00;;;2.73;;
84818;SDS011;75053;51.080;13.712;2024-02-04T03:05:16;3.20;;;2.80;;
84818;SDS011;75053;51.080;13.712;2024-02-04T03:07:46;2.37;;;2.17;;
84818;SDS011;75053;51.080;13.712;2024-02-04T03:10:11;4.33;;;2.67;;
84818;SDS011;75053;51.080;13.712;2024-02-04T03:12:37;2.37;;;2.17;;
84818;SDS011;75053;51.080;13.712;2024-02-04T03:15:03;2.80;;;2.60;;
84818;SDS011;75053;51.080;13.712;2024-02-04T03:17:28;2.90;;;2.30;;
84818;SDS011;75053;51.080;13.712;2024-02-04T03:19:54;2.97;;;2.50;;
84818;SDS011;75053;51.080;13.712;2024-02-04T03:22:22;2.73;;;2.40;;
84818;SDS011;75053;51.080;13.712;2024-02-04T03:24:48;2.90;;;2.37;;
84818;SDS011;75053;51.080;13.712;2024-02-04T03:27:14;2.93;;;1.73;;
84818;SDS011;75053;51.080;13.712;2024-02-04T03:29:41;2.33;;;2.13;;
84818;SDS011;75053;51.080;13.712;2024-02-04T03:32:10;2.13;;;2.03;;
84818;SDS011;75053;51.080;13.712;2024-02-04T03:34:36;2.37;;;1.73;;
84818;SDS011;75053;51.080;13.712;2024-02-04T03:37:01;2.60;;;1.80;;
84818;SDS011;75053;51.080;13.712;2024-02-04T03:39:26;1.33;;;1.23;;
84818;SDS011;75053;51.080;13.712;2024-02-04T03:41:52;1.97;;;1.87;;
84818;SDS011;75053;51.080;13.712;2024-02-04T03:44:18;2.10;;;1.57;;
84818;SDS011;75053;51.080;13.712;2024-02-04T03:46:43;1.43;;;1.33;;
84818;SDS011;75053;51.080;13.712;2024-02-04T03:49:13;1.50;;;1.40;;
84818;SDS011;75053;51.080;13.712;2024-02-04T03:51:39;2.53;;;2.33;;
84818;SDS011;75053;51.080;13.712;2024-02-04T03:54:04;1.83;;;1.70;;
84818;SDS011;75053;51.080;13.712;2024-02-04T03:56:30;1.67;;;1.57;;
84818;SDS011;75053;51.080;13.712;2024-02-04T03:58:55;2.00;;;1.80;;
84818;SDS011;75053;51.080;13.712;2024-02-04T04:01:21;1.93;;;1.80;;
84818;SDS011;75053;51.080;13.712;2024-02-04T04:03:46;1.70;;;1.60;;
84818;SDS011;75053;51.080;13.712;2024-02-04T04:06:12;2.30;;;1.50;;
84818;SDS011;75053;51.080;13.712;2024-02-04T04:08:37;1.67;;;1.57;;
84818;SDS011;75053;51.080;13.712;2024-02-04T04:11:03;2.80;;;1.50;;
84818;SDS011;75053;51.080;13.712;2024-02-04T04:13:29;4.80;;;1.90;;
84818;SDS011;75053;51.080;13.712;2024-02-04T04:15:57;2.23;;;1.70;;
84818;SDS011;75053;51.080;13.712;2024-02-04T04:18:23;2.20;;;2.10;;
84818;SDS011;75053;51.080;13.712;2024-02-04T04:20:48;2.13;;;1.97;;
84818;SDS011;75053;51.080;13.712;2024-02-04T04:23:13;3.17;;;2.07;;
84818;SDS011;75053;51.080;13.712;2024-02-04T04:25:39;2.13;;;2.00;;
84818;SDS011;75053;51.080;13.712;2024-02-04T04:28:04;2.23;;;2.13;;
84818;SDS011;75053;51.080;13.712;2024-02-04T04:30:30;4.57;;;2.20;;
84818;SDS011;75053;51.080;13.712;2024-02-04T04:32:58;1.80;;;1.70;;
84818;SDS011;75053;51.080;13.712;2024-02-04T04:35:24;2.87;;;2.43;;
84818;SDS011;75053;51.080;13.712;2024-02-04T04:37:50;2.50;;;2.30;;
84818;SDS011;75053;51.080;13.712;2024-02-04T04:40:16;2.50;;;2.30;;
84818;SDS011;75053;51.080;13.712;2024-02-04T04:42:41;2.73;;;2.53;;
84818;SDS011;75053;51.080;13.712;2024-02-04T04:45:07;2.10;;;1.90;;
84818;SDS011;75053;51.080;13.712;2024-02-04T04:47:33;3.23;;;2.17;;
84818;SDS011;75053;51.080;13.712;2024-02-04T04:49:59;2.03;;;1.93;;
84818;SDS011;75053;51.080;13.712;2024-02-04T04:52:24;3.33;;;1.77;;
84818;SDS011;75053;51.080;13.712;2024-02-04T04:54:50;1.70;;;1.60;;
84818;SDS011;75053;51.080;13.712;2024-02-04T04:57:16;2.03;;;1.93;;
84818;SDS011;75053;51.080;13.712;2024-02-04T04:59:41;2.53;;;1.70;;
84818;SDS011;75053;51.080;13.712;2024-02-04T05:02:07;1.57;;;1.53;;
84818;SDS011;75053;51.080;13.712;2024-02-04T05:04:32;3.33;;;2.13;;
84818;SDS011;75053;51.080;13.712;2024-02-04T05:06:58;2.83;;;1.50;;
84818;SDS011;75053;51.080;13.712;2024-02-04T05:09:23;1.73;;;1.43;;
84818;SDS011;75053;51.080;13.712;2024-02-04T05:11:48;4.17;;;1.43;;
84818;SDS011;75053;51.080;13.712;2024-02-04T05:14:14;1.60;;;1.50;;
84818;SDS011;75053;51.080;13.712;2024-02-04T05:16:39;1.83;;;1.70;;
84818;SDS011;75053;51.080;13.712;2024-02-04T05:19:05;7.07;;;2.60;;
84818;SDS011;75053;51.080;13.712;2024-02-04T05:21:30;1.57;;;1.47;;
84818;SDS011;75053;51.080;13.712;2024-02-04T05:23:56;2.13;;;1.80;;
84818;SDS011;75053;51.080;13.712;2024-02-04T05:26:21;3.20;;;1.50;;
84818;SDS011;75053;51.080;13.712;2024-02-04T05:28:46;1.67;;;1.57;;
84818;SDS011;75053;51.080;13.712;2024-02-04T05:31:12;2.20;;;1.57;;
84818;SDS011;75053;51.080;13.712;2024-02-04T05:33:37;1.30;;;1.30;;
84818;SDS011;75053;51.080;13.712;2024-02-04T05:36:03;1.63;;;1.53;;
84818;SDS011;75053;51.080;13.712;2024-02-04T05:38:29;2.27;;;1.80;;
84818;SDS011;75053;51.080;13.712;2024-02-04T05:40:54;3.47;;;1.80;;
84818;SDS011;75053;51.080;13.712;2024-02-04T05:43:21;1.90;;;1.80;;
84818;SDS011;75053;51.080;13.712;2024-02-04T05:45:46;2.03;;;1.83;;
84818;SDS011;75053;51.080;13.712;2024-02-04T05:48:12;2.17;;;2.07;;
84818;SDS011;75053;51.080;13.712;2024-02-04T05:50:38;2.57;;;2.10;;
84818;SDS011;75053;51.080;13.712;2024-02-04T05:53:12;2.23;;;1.90;;
84818;SDS011;75053;51.080;13.712;2024-02-04T05:55:38;1.63;;;1.53;;
84818;SDS011;75053;51.080;13.712;2024-02-04T05:58:04;1.80;;;1.70;;
84818;SDS011;75053;51.080;13.712;2024-02-04T06:00:29;2.03;;;1.50;;
84818;SDS011;75053;51.080;13.712;2024-02-04T06:02:55;3.70;;;2.03;;
84818;SDS011;75053;51.080;13.712;2024-02-04T06:05:29;2.50;;;2.10;;
84818;SDS011;75053;51.080;13.712;2024-02-04T06:07:55;5.43;;;2.10;;
84818;SDS011;75053;51.080;13.712;2024-02-04T06:10:20;1.20;;;1.20;;
84818;SDS011;75053;51.080;13.712;2024-02-04T06:12:46;1.90;;;1.80;;
84818;SDS011;75053;51.080;13.712;2024-02-04T06:15:12;2.50;;;2.03;;
84818;SDS011;75053;51.080;13.712;2024-02-04T06:17:38;3.63;;;1.90;;
84818;SDS011;75053;51.080;13.712;2024-02-04T06:20:04;3.23;;;1.93;;
84818;SDS011;75053;51.080;13.712;2024-02-04T06:22:30;1.70;;;1.60;;
84818;SDS011;75053;51.080;13.712;2024-02-04T06:24:56;1.93;;;1.70;;
84818;SDS011;75053;51.080;13.712;2024-02-04T06:27:21;2.53;;;1.90;;
84818;SDS011;75053;51.080;13.712;2024-02-04T06:29:47;1.53;;;1.43;;
84818;SDS011;75053;51.080;13.712;2024-02-04T06:32:12;1.63;;;1.53;;
84818;SDS011;75053;51.080;13.712;2024-02-04T06:34:39;1.80;;;1.70;;
84818;SDS011;75053;51.080;13.712;2024-02-04T06:37:05;1.30;;;1.20;;
84818;SDS011;75053;51.080;13.712;2024-02-04T06:39:30;5.03;;;1.53;;
84818;SDS011;75053;51.080;13.712;2024-02-04T06:41:56;1.53;;;1.40;;
84818;SDS011;75053;51.080;13.712;2024-02-04T06:44:21;1.23;;;1.10;;
84818;SDS011;75053;51.080;13.712;2024-02-04T06:46:47;1.57;;;1.47;;
84818;SDS011;75053;51.080;13.712;2024-02-04T06:49:13;2.60;;;1.53;;
84818;SDS011;75053;51.080;13.712;2024-02-04T06:51:43;1.60;;;1.50;;
84818;SDS011;75053;51.080;13.712;2024-02-04T06:54:09;2.77;;;1.27;;
84818;SDS011;75053;51.080;13.712;2024-02-04T06:56:38;2.97;;;1.37;;
84818;SDS011;75053;51.080;13.712;2024-02-04T06:59:03;1.73;;;1.63;;
84818;SDS011;75053;51.080;13.712;2024-02-04T07:01:29;1.40;;;1.30;;
84818;SDS011;75053;51.080;13.712;2024-02-04T07:03:54;1.60;;;1.50;;
84818;SDS011;75053;51.080;13.712;2024-02-04T07:06:23;2.63;;;1.30;;
84818;SDS011;75053;51.080;13.712;2024-02-04T07:08:48;4.77;;;2.03;;
84818;SDS011;75053;51.080;13.712;2024-02-04T07:11:14;1.40;;;1.30;;
84818;SDS011;75053;51.080;13.712;2024-02-04T07:13:39;1.40;;;1.30;;
84818;SDS011;75053;51.080;13.712;2024-02-04T07:16:05;1.23;;;1.23;;
84818;SDS011;75053;51.080;13.712;2024-02-04T07:18:30;0.83;;;0.80;;
84818;SDS011;75053;51.080;13.712;2024-02-04T07:20:56;0.87;;;0.87;;
84818;SDS011;75053;51.080;13.712;2024-02-04T07:23:22;0.93;;;0.93;;
84818;SDS011;75053;51.080;13.712;2024-02-04T07:25:47;1.00;;;1.00;;
84818;SDS011;75053;51.080;13.712;2024-02-04T07:28:13;4.67;;;1.07;;
84818;SDS011;75053;51.080;13.712;2024-02-04T07:30:38;1.03;;;0.70;;
84818;SDS011;75053;51.080;13.712;2024-02-04T07:33:04;3.80;;;0.57;;
84818;SDS011;75053;51.080;13.712;2024-02-04T07:35:29;0.60;;;0.60;;
84818;SDS011;75053;51.080;13.712;2024-02-04T07:37:55;0.83;;;0.80;;
84818;SDS011;75053;51.080;13.712;2024-02-04T07:40:20;0.60;;;0.60;;
84818;SDS011;75053;51.080;13.712;2024-02-04T07:42:46;1.80;;;1.10;;
84818;SDS011;75053;51.080;13.712;2024-02-04T07:45:11;0.33;;;0.33;;
84818;SDS011;75053;51.080;13.712;2024-02-04T07:47:37;0.47;;;0.47;;
84818;SDS011;75053;51.080;13.712;2024-02-04T07:50:02;0.83;;;0.70;;
84818;SDS011;75053;51.080;13.712;2024-02-04T07:52:28;1.33;;;0.50;;
84818;SDS011;75053;51.080;13.712;2024-02-04T07:54:54;0.40;;;0.40;;
84818;SDS011;75053;51.080;13.712;2024-02-04T07:57:19;2.50;;;0.30;;
84818;SDS011;75053;51.080;13.712;2024-02-04T07:59:45;0.20;;;0.20;;
84818;SDS011;75053;51.080;13.712;2024-02-04T08:02:11;0.10;;;0.10;;
84818;SDS011;75053;51.080;13.712;2024-02-04T08:04:36;0.20;;;0.20;;
84818;SDS011;75053;51.080;13.712;2024-02-04T08:07:05;0.30;;;0.30;;
84818;SDS011;75053;51.080;13.712;2024-02-04T08:09:31;0.23;;;0.20;;
84818;SDS011;75053;51.080;13.712;2024-02-04T08:11:56;0.63;;;0.37;;
84818;SDS011;75053;51.080;13.712;2024-02-04T08:14:21;0.30;;;0.30;;
84818;SDS011;75053;51.080;13.712;2024-02-04T08:16:47;0.40;;;0.40;;
84818;SDS011;75053;51.080;13.712;2024-02-04T08:19:13;0.27;;;0.27;;
84818;SDS011;75053;51.080;13.712;2024-02-04T08:21:39;0.20;;;0.20;;
84818;SDS011;75053;51.080;13.712;2024-02-04T08:24:04;0.20;;;0.20;;
84818;SDS011;75053;51.080;13.712;2024-02-04T08:26:34;0.80;;;0.30;;
84818;SDS011;75053;51.080;13.712;2024-02-04T08:28:59;0.30;;;0.20;;
84818;SDS011;75053;51.080;13.712;2024-02-04T08:31:25;0.20;;;0.20;;
84818;SDS011;75053;51.080;13.712;2024-02-04T08:33:50;0.53;;;0.30;;
84818;SDS011;75053;51.080;13.712;2024-02-04T08:36:17;0.20;;;0.20;;
84818;SDS011;75053;51.080;13.712;2024-02-04T08:38:43;0.20;;;0.20;;
84818;SDS011;75053;51.080;13.712;2024-02-04T08:41:09;1.17;;;0.20;;
84818;SDS011;75053;51.080;13.712;2024-02-04T08:43:37;0.20;;;0.20;;
84818;SDS011;75053;51.080;13.712;2024-02-04T08:46:06;0.20;;;0.20;;
84818;SDS011;75053;51.080;13.712;2024-02-04T08:48:34;0.37;;;0.37;;
84818;SDS011;75053;51.080;13.712;2024-02-04T08:51:01;0.20;;;0.20;;
84818;SDS011;75053;51.080;13.712;2024-02-04T08:53:27;2.17;;;0.60;;
84818;SDS011;75053;51.080;13.712;2024-02-04T08:55:52;0.17;;;0.17;;
84818;SDS011;75053;51.080;13.712;2024-02-04T08:58:18;1.38;;;0.30;;
84818;SDS011;75053;51.080;13.712;2024-02-04T09:00:43;2.00;;;0.23;;
84818;SDS011;75053;51.080;13.712;2024-02-04T09:03:09;2.35;;;0.20;;
84818;SDS011;75053;51.080;13.712;2024-02-04T09:05:34;0.20;;;0.20;;
84818;SDS011;75053;51.080;13.712;2024-02-04T09:08:03;0.27;;;0.27;;
84818;SDS011;75053;51.080;13.712;2024-02-04T09:10:28;1.08;;;0.30;;
84818;SDS011;75053;51.080;13.712;2024-02-04T09:12:54;0.20;;;0.20;;
84818;SDS011;75053;51.080;13.712;2024-02-04T09:15:19;0.37;;;0.37;;
84818;SDS011;75053;51.080;13.712;2024-02-04T09:17:45;1.40;;;0.30;;
84818;SDS011;75053;51.080;13.712;2024-02-04T09:20:10;0.20;;;0.20;;
84818;SDS011;75053;51.080;13.712;2024-02-04T09:22:36;0.95;;;0.20;;
84818;SDS011;75053;51.080;13.712;2024-02-04T09:25:02;0.20;;;0.20;;
84818;SDS011;75053;51.080;13.712;2024-02-04T09:27:27;0.20;;;0.20;;
84818;SDS011;75053;51.080;13.712;2024-02-04T09:29:53;0.28;;;0.28;;
84818;SDS011;75053;51.080;13.712;2024-02-04T09:32:20;1.50;;;0.40;;
84818;SDS011;75053;51.080;13.712;2024-02-04T09:34:45;0.43;;;0.43;;
84818;SDS011;75053;51.080;13.712;2024-02-04T09:37:11;1.02;;;0.35;;
84818;SDS011;75053;51.080;13.712;2024-02-04T09:39:36;0.50;;;0.50;;
84818;SDS011;75053;51.080;13.712;2024-02-04T09:42:02;0.60;;;0.30;;
84818;SDS011;75053;51.080;13.712;2024-02-04T09:44:28;1.20;;;0.53;;
84818;SDS011;75053;51.080;13.712;2024-02-04T09:46:54;0.97;;;0.40;;
84818;SDS011;75053;51.080;13.712;2024-02-04T09:49:23;0.47;;;0.23;;
84818;SDS011;75053;51.080;13.712;2024-02-04T09:51:50;0.30;;;0.30;;
84818;SDS011;75053;51.080;13.712;2024-02-04T09:54:16;0.40;;;0.40;;
84818;SDS011;75053;51.080;13.712;2024-02-04T09:56:43;0.27;;;0.27;;
84818;SDS011;75053;51.080;13.712;2024-02-04T09:59:09;0.20;;;0.20;;
84818;SDS011;75053;51.080;13.712;2024-02-04T10:01:35;0.30;;;0.30;;
84818;SDS011;75053;51.080;13.712;2024-02-04T10:04:01;1.03;;;0.40;;
84818;SDS011;75053;51.080;13.712;2024-02-04T10:06:27;0.67;;;0.20;;
84818;SDS011;75053;51.080;13.712;2024-02-04T10:08:52;2.87;;;0.50;;
84818;SDS011;75053;51.080;13.712;2024-02-04T10:11:18;0.57;;;0.20;;
84818;SDS011;75053;51.080;13.712;2024-02-04T10:13:44;1.03;;;0.30;;
84818;SDS011;75053;51.080;13.712;2024-02-04T10:16:13;0.57;;;0.50;;
84818;SDS011;75053;51.080;13.712;2024-02-04T10:18:43;1.63;;;0.60;;
84818;SDS011;75053;51.080;13.712;2024-02-04T10:23:48;0.53;;;0.53;;
84818;SDS011;75053;51.080;13.712;2024-02-04T10:26:14;0.53;;;0.53;;
84818;SDS011;75053;51.080;13.712;2024-02-04T10:28:44;0.63;;;0.50;;
84818;SDS011;75053;51.080;13.712;2024-02-04T10:31:11;0.50;;;0.50;;
84818;SDS011;75053;51.080;13.712;2024-02-04T10:33:37;1.80;;;0.40;;
84818;SDS011;75053;51.080;13.712;2024-02-04T10:36:03;0.43;;;0.43;;
84818;SDS011;75053;51.080;13.712;2024-02-04T10:38:30;0.83;;;0.83;;
84818;SDS011;75053;51.080;13.712;2024-02-04T10:40:56;0.40;;;0.40;;
84818;SDS011;75053;51.080;13.712;2024-02-04T10:43:25;0.77;;;0.47;;
84818;SDS011;75053;51.080;13.712;2024-02-04T10:46:07;0.77;;;0.60;;
84818;SDS011;75053;51.080;13.712;2024-02-04T10:48:36;2.13;;;0.80;;
84818;SDS011;75053;51.080;13.712;2024-02-04T10:51:11;0.83;;;0.63;;
84818;SDS011;75053;51.080;13.712;2024-02-04T10:53:42;2.87;;;0.90;;
84818;SDS011;75053;51.080;13.712;2024-02-04T10:56:14;1.60;;;1.30;;
84818;SDS011;75053;51.080;13.712;2024-02-04T10:58:53;1.57;;;1.20;;
84818;SDS011;75053;51.080;13.712;2024-02-04T11:01:23;1.33;;;1.23;;
84818;SDS011;75053;51.080;13.712;2024-02-04T11:03:50;1.37;;;1.27;;
84818;SDS011;75053;51.080;13.712;2024-02-04T11:06:18;0.97;;;0.90;;
84818;SDS011;75053;51.080;13.712;2024-02-04T11:08:46;3.77;;;1.60;;
84818;SDS011;75053;51.080;13.712;2024-02-04T11:11:12;2.53;;;1.70;;
84818;SDS011;75053;51.080;13.712;2024-02-04T11:13:38;3.05;;;0.98;;
84818;SDS011;75053;51.080;13.712;2024-02-04T11:16:07;2.80;;;1.02;;
84818;SDS011;75053;51.080;13.712;2024-02-04T11:18:46;0.60;;;0.60;;
84818;SDS011;75053;51.080;13.712;2024-02-04T11:24:21;0.55;;;0.55;;
84818;SDS011;75053;51.080;13.712;2024-02-04T11:27:07;1.70;;;0.80;;
84818;SDS011;75053;51.080;13.712;2024-02-04T11:29:33;2.93;;;0.53;;
84818;SDS011;75053;51.080;13.712;2024-02-04T11:32:01;0.50;;;0.40;;
84818;SDS011;75053;51.080;13.712;2024-02-04T11:34:27;3.73;;;0.57;;
84818;SDS011;75053;51.080;13.712;2024-02-04T11:36:53;0.53;;;0.50;;
84818;SDS011;75053;51.080;13.712;2024-02-04T11:39:19;4.43;;;0.73;;
84818;SDS011;75053;51.080;13.712;2024-02-04T11:41:48;0.65;;;0.55;;
84818;SDS011;75053;51.080;13.712;2024-02-04T11:44:24;0.97;;;0.50;;
84818;SDS011;75053;51.080;13.712;2024-02-04T11:46:51;0.40;;;0.37;;
84818;SDS011;75053;51.080;13.712;2024-02-04T11:49:17;3.70;;;0.70;;
84818;SDS011;75053;51.080;13.712;2024-02-04T11:51:47;0.52;;;0.40;;
84818;SDS011;75053;51.080;13.712;2024-02-04T11:54:16;0.70;;;0.70;;
84818;SDS011;75053;51.080;13.712;2024-02-04T11:56:48;0.93;;;0.88;;
84818;SDS011;75053;51.080;13.712;2024-02-04T11:59:18;2.05;;;0.82;;
84818;SDS011;75053;51.080;13.712;2024-02-04T12:01:46;2.50;;;0.90;;
84818;SDS011;75053;51.080;13.712;2024-02-04T12:04:13;3.00;;;0.90;;
84818;SDS011;75053;51.080;13.712;2024-02-04T12:06:40;1.60;;;0.90;;
84818;SDS011;75053;51.080;13.712;2024-02-04T12:09:12;2.20;;;0.90;;
84818;SDS011;75053;51.080;13.712;2024-02-04T12:11:45;0.90;;;0.83;;
84818;SDS011;75053;51.080;13.712;2024-02-04T12:14:14;0.77;;;0.77;;
84818;SDS011;75053;51.080;13.712;2024-02-04T12:16:42;0.80;;;0.80;;
84818;SDS011;75053;51.080;13.712;2024-02-04T12:19:08;0.97;;;0.80;;
84818;SDS011;75053;51.080;13.712;2024-02-04T12:21:33;0.97;;;0.97;;
84818;SDS011;75053;51.080;13.712;2024-02-04T12:24:01;0.85;;;0.85;;
84818;SDS011;75053;51.080;13.712;2024-02-04T12:26:27;0.98;;;0.80;;
84818;SDS011;75053;51.080;13.712;2024-02-04T12:28:53;1.25;;;1.15;;
84818;SDS011;75053;51.080;13.712;2024-02-04T12:31:22;3.20;;;1.20;;
84818;SDS011;75053;51.080;13.712;2024-02-04T12:33:53;3.38;;;1.77;;
84818;SDS011;75053;51.080;13.712;2024-02-04T12:36:25;1.40;;;0.93;;
84818;SDS011;75053;51.080;13.712;2024-02-04T12:38:55;1.35;;;1.25;;
84818;SDS011;75053;51.080;13.712;2024-02-04T12:41:22;0.73;;;0.73;;
84818;SDS011;75053;51.080;13.712;2024-02-04T12:43:52;1.02;;;0.80;;
84818;SDS011;75053;51.080;13.712;2024-02-04T12:46:19;4.38;;;1.35;;
84818;SDS011;75053;51.080;13.712;2024-02-04T12:48:52;1.67;;;1.30;;
84818;SDS011;75053;51.080;13.712;2024-02-04T12:51:24;1.15;;;1.15;;
84818;SDS011;75053;51.080;13.712;2024-02-04T12:54:07;1.30;;;1.15;;
84818;SDS011;75053;51.080;13.712;2024-02-04T12:59:28;3.15;;;2.30;;
84818;SDS011;75053;51.080;13.712;2024-02-04T13:02:07;1.02;;;1.02;;
84818;SDS011;75053;51.080;13.712;2024-02-04T13:04:36;1.27;;;1.08;;
84818;SDS011;75053;51.080;13.712;2024-02-04T13:07:07;3.83;;;0.98;;
84818;SDS011;75053;51.080;13.712;2024-02-04T13:09:41;2.90;;;1.20;;
84818;SDS011;75053;51.080;13.712;2024-02-04T13:12:08;1.17;;;1.10;;
84818;SDS011;75053;51.080;13.712;2024-02-04T13:14:35;1.00;;;0.82;;
84818;SDS011;75053;51.080;13.712;2024-02-04T13:17:04;2.08;;;1.00;;
84818;SDS011;75053;51.080;13.712;2024-02-04T13:19:34;1.85;;;1.02;;
84818;SDS011;75053;51.080;13.712;2024-02-04T13:22:04;2.38;;;1.45;;
84818;SDS011;75053;51.080;13.712;2024-02-04T13:24:31;2.25;;;1.23;;
84818;SDS011;75053;51.080;13.712;2024-02-04T13:26:57;0.77;;;0.73;;
84818;SDS011;75053;51.080;13.712;2024-02-04T13:29:23;1.17;;;0.88;;
84818;SDS011;75053;51.080;13.712;2024-02-04T13:31:49;3.45;;;1.40;;
84818;SDS011;75053;51.080;13.712;2024-02-04T13:34:15;1.45;;;1.35;;
84818;SDS011;75053;51.080;13.712;2024-02-04T13:36:41;2.13;;;1.15;;
84818;SDS011;75053;51.080;13.712;2024-02-04T13:39:07;0.85;;;0.85;;
84818;SDS011;75053;51.080;13.712;2024-02-04T13:41:33;2.00;;;1.20;;
84818;SDS011;75053;51.080;13.712;2024-02-04T13:43:58;1.48;;;1.20;;
84818;SDS011;75053;51.080;13.712;2024-02-04T13:46:30;2.80;;;1.10;;
84818;SDS011;75053;51.080;13.712;2024-02-04T13:48:55;1.10;;;0.73;;
84818;SDS011;75053;51.080;13.712;2024-02-04T13:51:21;1.60;;;1.23;;
84818;SDS011;75053;51.080;13.712;2024-02-04T13:53:46;1.67;;;1.58;;
84818;SDS011;75053;51.080;13.712;2024-02-04T13:56:12;3.33;;;1.70;;
84818;SDS011;75053;51.080;13.712;2024-02-04T13:58:37;0.90;;;0.90;;
84818;SDS011;75053;51.080;13.712;2024-02-04T14:01:03;1.00;;;1.00;;
84818;SDS011;75053;51.080;13.712;2024-02-04T14:03:37;1.37;;;1.10;;
84818;SDS011;75053;51.080;13.712;2024-02-04T14:06:06;2.50;;;1.13;;
84818;SDS011;75053;51.080;13.712;2024-02-04T14:08:52;1.13;;;1.00;;
84818;SDS011;75053;51.080;13.712;2024-02-04T14:11:20;0.97;;;0.90;;
84818;SDS011;75053;51.080;13.712;2024-02-04T14:13:45;0.90;;;0.90;;
84818;SDS011;75053;51.080;13.712;2024-02-04T14:16:11;1.33;;;0.90;;
84818;SDS011;75053;51.080;13.712;2024-02-04T14:18:36;2.30;;;1.03;;
84818;SDS011;75053;51.080;13.712;2024-02-04T14:21:03;0.70;;;0.70;;
84818;SDS011;75053;51.080;13.712;2024-02-04T14:23:30;1.53;;;1.20;;
84818;SDS011;75053;51.080;13.712;2024-02-04T14:25:56;7.23;;;1.40;;
84818;SDS011;75053;51.080;13.712;2024-02-04T14:28:25;1.03;;;1.03;;
84818;SDS011;75053;51.080;13.712;2024-02-04T14:30:51;2.20;;;1.77;;
84818;SDS011;75053;51.080;13.712;2024-02-04T14:33:20;2.90;;;1.10;;
84818;SDS011;75053;51.080;13.712;2024-02-04T14:35:45;2.13;;;1.10;;
84818;SDS011;75053;51.080;13.712;2024-02-04T14:38:11;4.45;;;1.10;;
84818;SDS011;75053;51.080;13.712;2024-02-04T14:40:36;2.23;;;1.03;;
84818;SDS011;75053;51.080;13.712;2024-02-04T14:43:02;3.23;;;1.13;;